sensor_id;sensor_type;location;lat;lon;timestamp;pressure;altitude;pressure_sealevel;temperature;humidity
76331;BME280;65148;51.912;15.570;2023-03-01T00:10:37;103041.47;;;-2.08;80.75
76331;BME280;65148;51.912;15.570;2023-03-01T00:25:43;103032.90;;;-2.11;80.72
76331;BME280;65148;51.912;15.570;2023-03-01T00:41:05;103013.61;;;-2.33;80.74
76331;BME280;65148;51.912;15.570;2023-03-01T00:56:08;103010.94;;;-2.33;80.25
76331;BME280;65148;51.912;15.570;2023-03-01T01:11:11;102996.98;;;-2.54;80.08
76331;BME280;65148;51.912;15.570;2023-03-01T01:26:20;102989.99;;;-2.65;80.44
76331;BME280;65148;51.912;15.570;2023-03-01T01:41:35;102972.77;;;-2.80;80.87
76331;BME280;65148;51.912;15.570;2023-03-01T01:56:39;102959.02;;;-2.75;80.48
76331;BME280;65148;51.912;15.570;2023-03-01T02:11:44;102939.69;;;-2.87;80.06
76331;BME280;65148;51.912;15.570;2023-03-01T02:26:50;102948.80;;;-2.89;80.37
76331;BME280;65148;51.912;15.570;2023-03-01T02:42:07;102950.09;;;-2.93;80.25
76331;BME280;65148;51.912;15.570;2023-03-01T02:57:11;102962.43;;;-3.02;79.98
76331;BME280;65148;51.912;15.570;2023-03-01T03:12:13;102953.59;;;-3.03;79.85
76331;BME280;65148;51.912;15.570;2023-03-01T03:27:14;102941.13;;;-3.12;79.27
76331;BME280;65148;51.912;15.570;2023-03-01T03:42:35;102916.92;;;-3.28;79.94
76331;BME280;65148;51.912;15.570;2023-03-01T03:57:40;102919.85;;;-3.31;79.34
76331;BME280;65148;51.912;15.570;2023-03-01T04:12:43;102912.30;;;-3.36;79.45
76331;BME280;65148;51.912;15.570;2023-03-01T04:27:50;102904.73;;;-3.40;79.43
76331;BME280;65148;51.912;15.570;2023-03-01T04:43:08;102893.80;;;-3.56;79.11
76331;BME280;65148;51.912;15.570;2023-03-01T04:58:09;102895.09;;;-3.70;78.42
76331;BME280;65148;51.912;15.570;2023-03-01T05:13:10;102901.52;;;-3.73;78.67
76331;BME280;65148;51.912;15.570;2023-03-01T05:43:42;102884.98;;;-4.05;78.88
76331;BME280;65148;51.912;15.570;2023-03-01T05:58:45;102889.19;;;-4.02;79.13
76331;BME280;65148;51.912;15.570;2023-03-01T06:13:48;102877.44;;;-3.90;79.39
76331;BME280;65148;51.912;15.570;2023-03-01T06:28:56;102891.84;;;-3.74;79.82
76331;BME280;65148;51.912;15.570;2023-03-01T06:44:13;102896.74;;;-3.40;80.92
76331;BME280;65148;51.912;15.570;2023-03-01T06:59:15;102903.11;;;-2.95;82.37
76331;BME280;65148;51.912;15.570;2023-03-01T07:14:17;102907.05;;;-2.34;84.26
76331;BME280;65148;51.912;15.570;2023-03-01T07:29:20;102894.40;;;-1.69;85.80
76331;BME280;65148;51.912;15.570;2023-03-01T07:44:43;102880.55;;;-1.03;87.62
76331;BME280;65148;51.912;15.570;2023-03-01T07:59:44;102897.40;;;-0.01;85.26
76331;BME280;65148;51.912;15.570;2023-03-01T08:14:47;102892.56;;;0.92;78.60
76331;BME280;65148;51.912;15.570;2023-03-01T08:29:48;102870.42;;;1.84;74.49
76331;BME280;65148;51.912;15.570;2023-03-01T08:45:12;102863.04;;;2.92;72.18
76331;BME280;65148;51.912;15.570;2023-03-01T09:00:19;102868.60;;;3.49;66.19
76331;BME280;65148;51.912;15.570;2023-03-01T09:15:20;102882.16;;;4.28;62.70
76331;BME280;65148;51.912;15.570;2023-03-01T09:30:21;102874.91;;;4.50;59.47
76331;BME280;65148;51.912;15.570;2023-03-01T09:45:43;102864.33;;;5.04;59.26
76331;BME280;65148;51.912;15.570;2023-03-01T10:00:48;102841.64;;;5.87;55.28
76331;BME280;65148;51.912;15.570;2023-03-01T10:15:55;102844.27;;;6.54;53.07
76331;BME280;65148;51.912;15.570;2023-03-01T10:31:25;102816.58;;;6.79;51.35
76331;BME280;65148;51.912;15.570;2023-03-01T10:46:36;102804.03;;;8.31;48.83
76331;BME280;65148;51.912;15.570;2023-03-01T11:01:37;102794.35;;;9.40;42.62
76331;BME280;65148;51.912;15.570;2023-03-01T11:32:18;102776.13;;;10.53;40.10
76331;BME280;65148;51.912;15.570;2023-03-01T11:47:29;102769.62;;;11.98;34.50
76331;BME280;65148;51.912;15.570;2023-03-01T12:48:47;102706.91;;;9.96;32.82
76331;BME280;65148;51.912;15.570;2023-03-01T13:19:13;102662.22;;;10.04;33.46
76331;BME280;65148;51.912;15.570;2023-03-01T13:49:52;102629.97;;;9.54;34.60
76331;BME280;65148;51.912;15.570;2023-03-01T14:20:55;102606.37;;;10.01;35.83
76331;BME280;65148;51.912;15.570;2023-03-01T14:36:29;102582.48;;;9.80;35.52
76331;BME280;65148;51.912;15.570;2023-03-01T14:51:31;102589.59;;;10.04;35.91
76331;BME280;65148;51.912;15.570;2023-03-01T15:06:36;102583.38;;;9.39;35.40
76331;BME280;65148;51.912;15.570;2023-03-01T15:52:35;102576.38;;;8.41;36.34
76331;BME280;65148;51.912;15.570;2023-03-01T16:07:53;102570.58;;;7.52;38.86
76331;BME280;65148;51.912;15.570;2023-03-01T16:22:57;102567.92;;;6.82;42.27
76331;BME280;65148;51.912;15.570;2023-03-01T16:38:00;102581.75;;;6.16;46.21
76331;BME280;65148;51.912;15.570;2023-03-01T16:53:02;102580.12;;;5.30;48.73
76331;BME280;65148;51.912;15.570;2023-03-01T17:08:18;102595.80;;;4.32;53.39
76331;BME280;65148;51.912;15.570;2023-03-01T17:23:20;102611.26;;;3.61;55.13
76331;BME280;65148;51.912;15.570;2023-03-01T17:38:21;102611.46;;;2.96;57.94
76331;BME280;65148;51.912;15.570;2023-03-01T17:53:23;102619.79;;;2.50;59.82
76331;BME280;65148;51.912;15.570;2023-03-01T18:08:47;102611.28;;;2.03;62.89
76331;BME280;65148;51.912;15.570;2023-03-01T18:23:53;102608.55;;;1.73;64.02
76331;BME280;65148;51.912;15.570;2023-03-01T18:38:55;102589.44;;;1.54;66.83
76331;BME280;65148;51.912;15.570;2023-03-01T18:53:57;102575.94;;;1.24;67.06
76331;BME280;65148;51.912;15.570;2023-03-01T19:09:16;102570.49;;;0.87;69.63
76331;BME280;65148;51.912;15.570;2023-03-01T19:24:18;102589.48;;;0.85;69.22
76331;BME280;65148;51.912;15.570;2023-03-01T19:39:19;102595.24;;;0.74;70.14
76331;BME280;65148;51.912;15.570;2023-03-01T19:54:20;102588.44;;;0.55;69.64
76331;BME280;65148;51.912;15.570;2023-03-01T20:09:50;102599.59;;;0.36;70.49
76331;BME280;65148;51.912;15.570;2023-03-01T20:24:51;102615.36;;;0.31;71.26
76331;BME280;65148;51.912;15.570;2023-03-01T20:39:54;102607.66;;;0.28;70.40
76331;BME280;65148;51.912;15.570;2023-03-01T20:54:55;102603.00;;;0.14;71.60
76331;BME280;65148;51.912;15.570;2023-03-01T21:10:22;102598.05;;;-0.06;73.19
76331;BME280;65148;51.912;15.570;2023-03-01T21:25:24;102605.75;;;-0.03;72.66
76331;BME280;65148;51.912;15.570;2023-03-01T21:40:35;102605.27;;;-0.14;73.15
76331;BME280;65148;51.912;15.570;2023-03-01T21:55:37;102590.87;;;-0.21;73.29
76331;BME280;65148;51.912;15.570;2023-03-01T22:10:56;102592.08;;;-0.40;74.36
76331;BME280;65148;51.912;15.570;2023-03-01T22:25:58;102567.15;;;-0.41;74.37
76331;BME280;65148;51.912;15.570;2023-03-01T22:41:01;102557.48;;;-0.50;73.93
76331;BME280;65148;51.912;15.570;2023-03-01T23:11:28;102555.81;;;-0.75;76.41
76331;BME280;65148;51.912;15.570;2023-03-01T23:26:30;102555.16;;;-0.69;75.87
76331;BME280;65148;51.912;15.570;2023-03-01T23:41:33;102537.77;;;-0.73;75.88
76331;BME280;65148;51.912;15.570;2023-03-01T23:56:37;102525.73;;;-0.85;76.57
